createdAt,value
2023-05-14T00:00:16.630Z,2.967374
2023-05-14T00:05:16.051Z,2.873108
2023-05-14T00:10:15.762Z,2.772821
2023-05-14T00:15:15.913Z,2.677661
2023-05-14T00:20:16.099Z,2.580276
2023-05-14T00:25:15.730Z,2.495735
2023-05-14T00:30:15.765Z,2.404930
2023-05-14T00:35:16.780Z,2.306951
2023-05-14T00:40:16.158Z,2.216371
2023-05-14T00:45:16.103Z,2.124799
2023-05-14T00:50:15.716Z,2.032101
2023-05-14T00:55:15.534Z,1.943021
2023-05-14T01:00:15.885Z,1.849642
2023-05-14T01:05:15.925Z,1.759213
2023-05-14T01:10:15.683Z,1.667339
2023-05-14T01:15:17.096Z,1.583233
2023-05-14T01:20:16.087Z,1.498912
2023-05-14T01:25:16.007Z,1.416574
2023-05-14T01:30:16.567Z,1.331982
2023-05-14T01:35:15.866Z,1.246506
2023-05-14T01:40:16.058Z,1.164921
2023-05-14T01:45:15.905Z,1.088649
2023-05-14T01:50:16.380Z,1.011910
2023-05-14T01:55:16.048Z,0.937795
2023-05-14T02:00:15.839Z,0.867835
2023-05-14T02:05:15.674Z,0.796378
2023-05-14T02:10:15.637Z,0.729918
2023-05-14T02:15:16.209Z,0.668016
2023-05-14T02:20:15.817Z,0.606825
2023-05-14T02:25:15.624Z,0.545596
2023-05-14T02:30:16.147Z,0.491011
2023-05-14T02:35:15.999Z,0.438297
2023-05-14T02:40:16.781Z,0.389846
2023-05-14T02:45:16.297Z,0.346860
2023-05-14T02:50:15.743Z,0.303188
2023-05-14T02:55:15.691Z,0.266322
2023-05-14T03:00:16.228Z,0.221465
2023-05-14T03:05:15.605Z,0.166148
2023-05-14T03:10:16.012Z,0.144986
2023-05-14T03:15:15.866Z,0.130492
2023-05-14T03:20:16.547Z,0.111385
2023-05-14T03:25:16.714Z,0.095478
2023-05-14T03:30:16.119Z,0.081971
2023-05-14T03:35:15.834Z,0.063348
2023-05-14T03:40:15.792Z,0.049169
2023-05-14T03:45:16.537Z,0.040502
2023-05-14T03:50:16.577Z,0.037226
2023-05-14T03:55:16.531Z,0.034541
2023-05-14T04:00:16.617Z,0.030773
2023-05-14T04:05:15.719Z,0.028288
2023-05-14T04:10:15.492Z,0.029671
2023-05-14T04:15:16.252Z,0.028965
2023-05-14T04:20:16.934Z,0.026804
2023-05-14T04:25:16.476Z,0.027176
2023-05-14T04:30:15.899Z,0.026968
2023-05-14T04:35:16.734Z,0.028423
2023-05-14T04:40:15.764Z,0.027360
2023-05-14T04:45:16.435Z,0.027655
2023-05-14T04:50:16.328Z,0.028261
2023-05-14T04:55:15.749Z,0.027881
2023-05-14T05:00:16.482Z,0.027796
2023-05-14T05:05:16.117Z,0.028447
2023-05-14T05:10:15.858Z,0.028357
2023-05-14T05:15:16.314Z,0.028852
2023-05-14T05:20:16.016Z,0.028761
2023-05-14T05:25:16.218Z,0.027988
2023-05-14T05:30:16.614Z,0.028008
2023-05-14T05:35:16.618Z,0.027362
2023-05-14T05:40:15.929Z,0.026731
2023-05-14T05:45:15.977Z,0.027876
2023-05-14T05:50:15.938Z,0.027552
2023-05-14T05:55:16.440Z,0.027912
2023-05-14T06:00:16.318Z,0.027958
2023-05-14T06:05:15.961Z,0.028399
2023-05-14T06:10:16.781Z,0.027938
2023-05-14T06:15:15.687Z,0.028037
2023-05-14T06:20:15.944Z,0.028419
2023-05-14T06:25:16.106Z,0.027539
2023-05-14T06:30:16.100Z,0.027624
2023-05-14T06:35:16.412Z,0.027241
2023-05-14T06:40:16.133Z,0.027590
2023-05-14T06:45:16.260Z,0.027192
2023-05-14T06:50:15.750Z,0.026671
2023-05-14T06:55:16.189Z,0.026131
2023-05-14T07:00:16.272Z,0.027155
2023-05-14T07:05:16.169Z,0.027474
2023-05-14T07:10:15.754Z,0.026193
2023-05-14T07:15:15.877Z,0.027086
2023-05-14T07:20:15.756Z,0.027286
2023-05-14T07:25:15.847Z,0.026598
2023-05-14T07:30:16.247Z,0.026870
2023-05-14T07:35:16.690Z,0.027093
2023-05-14T07:40:15.773Z,0.026879
2023-05-14T07:45:16.082Z,0.027083
2023-05-14T07:50:16.277Z,0.026914
2023-05-14T07:55:16.249Z,0.026763
2023-05-14T08:00:16.712Z,0.027065
2023-05-14T08:05:15.688Z,0.027065
2023-05-14T08:10:16.275Z,0.028186
2023-05-14T08:15:16.893Z,0.027074
2023-05-14T08:20:15.858Z,0.027323
2023-05-14T08:25:15.916Z,0.026941
2023-05-14T08:30:15.885Z,0.027875
2023-05-14T08:35:15.996Z,0.026808
2023-05-14T08:40:16.168Z,0.028343
2023-05-14T08:45:16.004Z,0.027374
2023-05-14T08:50:15.820Z,0.027677
2023-05-14T08:55:16.234Z,0.026941
2023-05-14T09:00:16.362Z,0.027564
2023-05-14T09:05:16.375Z,0.028236
2023-05-14T09:10:16.054Z,0.027003
2023-05-14T09:15:16.279Z,0.027308
2023-05-14T09:20:15.841Z,0.028293
2023-05-14T09:25:16.585Z,0.027596
2023-05-14T09:30:15.722Z,0.027915
2023-05-14T09:35:15.827Z,0.026741
2023-05-14T09:40:15.943Z,0.027700
2023-05-14T09:45:16.903Z,0.026941
2023-05-14T09:50:15.965Z,0.026452
2023-05-14T09:55:15.799Z,0.027785
2023-05-14T10:00:15.857Z,0.027396
2023-05-14T10:05:17.083Z,0.026713
2023-05-14T10:10:16.126Z,0.026588
2023-05-14T10:15:15.987Z,0.027331
2023-05-14T10:20:15.865Z,0.028197
2023-05-14T10:25:16.233Z,0.027139
2023-05-14T10:30:16.332Z,0.026368
2023-05-14T10:35:17.183Z,0.027367
2023-05-14T10:40:15.792Z,0.026932
2023-05-14T10:45:16.139Z,0.028404
2023-05-14T10:50:15.893Z,0.027627
2023-05-14T10:55:16.530Z,0.027661
2023-05-14T11:00:16.169Z,0.027851
2023-05-14T11:05:16.337Z,0.027513
2023-05-14T11:10:15.851Z,0.026759
2023-05-14T11:15:16.166Z,0.026497
2023-05-14T11:20:15.871Z,0.027077
2023-05-14T11:25:15.815Z,0.027836
2023-05-14T11:30:17.346Z,0.028288
2023-05-14T11:35:16.205Z,0.027745
2023-05-14T11:40:16.021Z,0.027886
2023-05-14T11:45:15.856Z,0.026654
2023-05-14T11:50:16.067Z,0.026316
2023-05-14T11:55:15.773Z,0.026089
2023-05-14T12:00:16.392Z,0.028012
2023-05-14T12:05:16.534Z,0.028197
2023-05-14T12:10:16.241Z,0.029305
2023-05-14T12:15:15.941Z,0.029783
2023-05-14T12:20:16.510Z,0.032761
2023-05-14T12:25:16.608Z,0.035449
2023-05-14T12:30:21.905Z,0.038635
2023-05-14T12:35:16.416Z,0.044032
2023-05-14T12:40:16.789Z,0.056533
2023-05-14T12:45:15.823Z,0.071984
2023-05-14T12:50:15.830Z,0.089878
2023-05-14T12:55:16.074Z,0.101108
2023-05-14T13:00:16.000Z,0.119742
2023-05-14T13:05:16.115Z,0.135024
2023-05-14T13:10:16.069Z,0.149256
2023-05-14T13:15:15.889Z,0.174109
2023-05-14T13:20:16.717Z,0.209039
2023-05-14T13:25:15.807Z,0.241820
2023-05-14T13:30:16.129Z,0.269365
2023-05-14T13:35:16.844Z,0.305008
2023-05-14T13:40:16.989Z,0.346590
2023-05-14T13:45:16.529Z,0.380798
2023-05-14T13:50:16.269Z,0.425923
2023-05-14T13:55:16.823Z,0.476527
2023-05-14T14:00:15.822Z,0.526946
2023-05-14T14:05:15.745Z,0.582693
2023-05-14T14:10:16.459Z,0.637241
2023-05-14T14:15:16.840Z,0.693000
2023-05-14T14:20:16.065Z,0.754983
2023-05-14T14:25:15.924Z,0.771018
2023-05-14T14:30:17.232Z,0.621659
2023-05-14T14:35:17.602Z,0.942894
2023-05-14T14:40:16.403Z,1.013445
2023-05-14T14:45:15.900Z,1.081760
2023-05-14T14:50:15.847Z,1.159418
2023-05-14T14:55:16.291Z,1.229140
2023-05-14T15:00:16.370Z,1.306781
2023-05-14T15:05:16.278Z,1.389707
2023-05-14T15:10:15.904Z,1.475340
2023-05-14T15:15:16.151Z,1.559878
2023-05-14T15:20:15.798Z,1.638037
2023-05-14T15:25:16.363Z,1.719963
2023-05-14T15:30:16.336Z,1.806587
2023-05-14T15:35:16.311Z,1.890505
2023-05-14T15:40:15.850Z,1.977541
2023-05-14T15:45:16.486Z,2.060885
2023-05-14T15:50:20.693Z,2.149070
2023-05-14T15:55:15.744Z,2.236479
2023-05-14T16:00:15.770Z,2.328024
2023-05-14T16:05:15.855Z,2.411029
2023-05-14T16:10:16.627Z,2.500042
2023-05-14T16:15:16.008Z,2.589260
2023-05-14T16:20:15.945Z,2.683188
2023-05-14T16:25:17.134Z,2.768346
2023-05-14T16:30:15.704Z,2.851820
2023-05-14T16:35:16.149Z,2.937550
2023-05-14T16:40:15.737Z,3.031264
2023-05-14T16:45:15.800Z,3.121671
2023-05-14T16:50:15.710Z,3.204447
2023-05-14T16:55:16.526Z,3.294848
2023-05-14T17:00:16.928Z,3.382374
2023-05-14T17:05:15.910Z,3.466890
2023-05-14T17:10:17.008Z,3.549700
2023-05-14T17:15:16.611Z,3.632103
2023-05-14T17:20:17.163Z,3.708193
2023-05-14T17:25:16.514Z,3.791213
2023-05-14T17:30:16.046Z,3.869476
2023-05-14T17:35:16.398Z,3.946795
2023-05-14T17:40:16.420Z,4.019017
2023-05-14T17:45:16.198Z,4.059955
2023-05-14T17:50:16.474Z,4.109831
2023-05-14T17:55:17.493Z,4.165887
2023-05-14T18:00:16.202Z,4.247315
2023-05-14T18:05:16.770Z,4.340165
2023-05-14T18:10:16.119Z,4.367936
2023-05-14T18:15:15.908Z,4.429254
2023-05-14T18:20:16.392Z,4.486734
2023-05-14T18:25:16.800Z,4.585124
2023-05-14T18:30:16.005Z,4.669714
2023-05-14T18:35:15.856Z,4.693561
2023-05-14T18:40:18.457Z,4.731227
2023-05-14T18:45:16.161Z,4.792706
2023-05-14T18:50:15.802Z,4.793613
2023-05-14T18:55:16.050Z,4.841442
2023-05-14T19:00:16.726Z,4.931163
2023-05-14T19:05:15.975Z,4.877502
2023-05-14T19:10:16.349Z,4.988577
2023-05-14T19:15:15.728Z,4.996691
2023-05-14T19:20:16.389Z,4.981062
2023-05-14T19:25:15.794Z,5.108706
2023-05-14T19:30:16.733Z,5.230436
2023-05-14T19:35:15.805Z,5.222180
2023-05-14T19:40:16.756Z,5.255654
2023-05-14T19:45:16.343Z,5.310334
2023-05-14T19:50:16.381Z,5.334338
2023-05-14T19:55:16.315Z,5.388433
2023-05-14T20:00:15.716Z,5.423889
2023-05-14T20:05:16.549Z,5.427246
2023-05-14T20:10:16.226Z,5.433547
2023-05-14T20:15:15.714Z,5.455539
2023-05-14T20:20:15.919Z,5.447435
2023-05-14T20:25:15.813Z,5.434527
2023-05-14T20:30:16.293Z,5.448065
2023-05-14T20:35:16.615Z,5.445429
2023-05-14T20:40:16.252Z,5.443336
2023-05-14T20:45:16.319Z,5.419643
2023-05-14T20:50:16.235Z,5.398812
2023-05-14T20:55:15.727Z,5.386905
2023-05-14T21:00:16.024Z,5.358206
2023-05-14T21:05:16.800Z,5.338880
2023-05-14T21:10:16.879Z,5.322921
2023-05-14T21:15:15.766Z,5.285422
2023-05-14T21:20:17.181Z,5.255709
2023-05-14T21:25:16.509Z,5.221231
2023-05-14T21:30:16.079Z,5.181489
2023-05-14T21:35:16.092Z,5.143345
2023-05-14T21:40:16.106Z,5.088979
2023-05-14T21:45:15.988Z,5.033829
2023-05-14T21:50:15.900Z,4.987467
2023-05-14T21:55:15.894Z,4.925706
2023-05-14T22:00:16.321Z,4.874228
2023-05-14T22:05:15.708Z,4.810254
2023-05-14T22:10:16.515Z,4.752515
2023-05-14T22:15:16.845Z,4.685221
2023-05-14T22:20:16.566Z,4.622619
2023-05-14T22:25:17.161Z,4.565845
2023-05-14T22:30:16.022Z,4.492246
2023-05-14T22:35:16.119Z,4.397804
2023-05-14T22:40:16.250Z,4.320191
2023-05-14T22:45:16.057Z,4.240383
2023-05-14T22:50:16.404Z,4.176064
2023-05-14T22:55:15.999Z,4.101706
2023-05-14T23:00:16.142Z,4.009694
2023-05-14T23:05:16.051Z,3.928034
2023-05-14T23:10:16.841Z,3.851082
2023-05-14T23:15:15.629Z,3.766765
2023-05-14T23:20:15.966Z,3.679943
2023-05-14T23:25:15.890Z,3.593901
2023-05-14T23:30:17.558Z,3.505288
2023-05-14T23:35:15.584Z,3.411937
2023-05-14T23:40:17.526Z,3.330892
2023-05-14T23:45:15.822Z,3.241554
2023-05-14T23:50:15.707Z,3.153905
2023-05-14T23:55:15.821Z,3.067671
